Coeburn, Virginia
Current Conditions -  °F | °C
As of 1:55 PM on Friday 31 Oct 2014 (Local Time) from KLNP Reporting Station
Drizzle Drizzle  
Wind Chill: 41°   Ceiling: 3100
Heat Index: 45°   Visibility: 10mi
Dew Point: 36°   Wind: 6mph
Humidity: 71%   Direction: 240°WSW
Pressure: 29.88"   Gusts: NA
Location:  36.94°N, 82.46°W
Report Text: KLNP 311755Z AUTO 24005KT 10SM DZ BKN031 OVC037 07/02 A2988 RMK AO2
Loading
Personal Weather Stations






























Interactive Weather Map
Tropical Storm Tracking
New forecast layout! Learn more

10-Day Weather Forecast

Advertisements
Track Severe Weather on mobile